createdAt,value
2022-12-14T00:00:42.239Z,14.97
2022-12-14T00:04:45.287Z,12.93
2022-12-14T00:08:50.449Z,14.27
2022-12-14T00:12:54.895Z,15.23
2022-12-14T00:16:57.913Z,18.43
2022-12-14T00:21:05.628Z,14.00
2022-12-14T00:25:09.350Z,14.37
2022-12-14T00:29:13.804Z,14.53
2022-12-14T00:33:16.845Z,15.83
2022-12-14T00:37:20.262Z,14.93
2022-12-14T00:41:23.544Z,15.97
2022-12-14T00:45:27.996Z,13.80
2022-12-14T00:49:31.059Z,14.93
2022-12-14T00:53:34.119Z,16.00
2022-12-14T00:57:37.210Z,13.90
2022-12-14T01:01:41.700Z,16.73
2022-12-14T01:05:49.249Z,14.73
2022-12-14T01:09:52.613Z,17.13
2022-12-14T01:13:57.368Z,13.67
2022-12-14T01:18:02.045Z,15.57
2022-12-14T01:22:05.163Z,13.23
2022-12-14T01:26:08.284Z,15.03
2022-12-14T01:30:12.179Z,15.60
2022-12-14T01:34:17.357Z,15.30
2022-12-14T01:38:20.341Z,15.60
2022-12-14T01:42:23.936Z,17.50
2022-12-14T01:46:34.929Z,14.33
2022-12-14T01:50:44.331Z,12.33
2022-12-14T01:54:50.403Z,16.33
2022-12-14T01:58:53.873Z,17.53
2022-12-14T02:03:01.770Z,16.40
2022-12-14T02:07:06.559Z,18.23
2022-12-14T02:11:09.629Z,17.00
2022-12-14T02:15:15.192Z,19.47
2022-12-14T02:19:18.284Z,16.93
2022-12-14T02:23:50.521Z,17.50
2022-12-14T02:28:09.260Z,17.60
2022-12-14T02:32:33.312Z,16.13
2022-12-14T02:36:42.860Z,16.60
2022-12-14T02:40:56.587Z,18.40
2022-12-14T02:45:08.415Z,15.80
2022-12-14T02:49:22.219Z,16.73
2022-12-14T02:53:30.842Z,18.30
2022-12-14T02:57:42.115Z,15.70
2022-12-14T03:01:48.282Z,16.83
2022-12-14T03:05:59.158Z,15.53
2022-12-14T03:10:07.388Z,17.27
2022-12-14T03:14:18.462Z,16.33
2022-12-14T03:18:24.620Z,18.10
2022-12-14T03:22:35.001Z,17.00
2022-12-14T03:26:47.524Z,16.63
2022-12-14T03:31:00.279Z,15.97
2022-12-14T03:35:08.804Z,16.90
2022-12-14T03:39:18.411Z,15.50
2022-12-14T03:43:28.617Z,17.70
2022-12-14T03:47:50.932Z,15.50
2022-12-14T03:52:04.432Z,18.20
2022-12-14T03:56:14.007Z,14.43
2022-12-14T04:00:22.588Z,17.87
2022-12-14T04:04:31.693Z,17.90
2022-12-14T04:08:42.471Z,15.87
2022-12-14T04:13:06.841Z,15.93
2022-12-14T04:17:31.478Z,18.97
2022-12-14T04:21:40.806Z,16.70
2022-12-14T04:26:05.992Z,19.00
2022-12-14T04:30:13.266Z,16.97
2022-12-14T04:34:19.313Z,15.30
2022-12-14T04:38:28.580Z,16.70
2022-12-14T04:42:37.345Z,17.27
2022-12-14T04:46:43.085Z,16.80
2022-12-14T04:50:50.499Z,15.80
2022-12-14T04:54:59.075Z,15.20
2022-12-14T04:59:02.431Z,17.07
2022-12-14T05:03:19.679Z,17.87
2022-12-14T05:07:35.049Z,18.67
2022-12-14T05:11:53.700Z,17.10
2022-12-14T05:15:59.569Z,15.40
2022-12-14T05:20:04.277Z,14.10
2022-12-14T05:24:07.938Z,17.73
2022-12-14T05:28:11.954Z,14.67
2022-12-14T05:32:15.085Z,16.17
2022-12-14T05:36:19.882Z,14.67
2022-12-14T05:40:23.253Z,13.83
2022-12-14T05:44:26.300Z,12.00
2022-12-14T05:48:29.403Z,15.53
2022-12-14T05:52:33.835Z,14.10
2022-12-14T05:56:37.026Z,16.33
2022-12-14T06:00:40.315Z,13.20
2022-12-14T06:04:43.450Z,15.33
2022-12-14T06:08:48.181Z,15.30
2022-12-14T06:12:51.397Z,16.13
2022-12-14T06:16:54.466Z,14.53
2022-12-14T06:20:58.700Z,13.20
2022-12-14T06:25:03.113Z,15.37
2022-12-14T06:29:06.173Z,14.37
2022-12-14T06:33:09.163Z,13.87
2022-12-14T06:37:12.258Z,13.07
2022-12-14T06:41:16.801Z,13.63
2022-12-14T06:45:19.795Z,14.53
2022-12-14T06:49:23.349Z,13.47
2022-12-14T06:53:26.779Z,14.43
2022-12-14T06:57:31.404Z,13.40
2022-12-14T07:01:34.525Z,12.27
2022-12-14T07:05:38.436Z,13.50
2022-12-14T07:09:41.492Z,14.97
2022-12-14T07:13:46.065Z,14.47
2022-12-14T07:17:52.074Z,11.50
2022-12-14T07:21:55.460Z,12.87
2022-12-14T07:26:02.440Z,12.40
2022-12-14T07:30:09.037Z,12.57
2022-12-14T07:34:14.106Z,11.97
2022-12-14T07:38:17.178Z,12.87
2022-12-14T07:42:20.390Z,13.27
2022-12-14T07:46:26.345Z,11.53
2022-12-14T07:50:29.551Z,13.60
2022-12-14T07:54:32.529Z,13.83
2022-12-14T07:58:36.695Z,12.33
2022-12-14T08:02:41.712Z,13.17
2022-12-14T08:06:46.834Z,17.27
2022-12-14T08:10:50.211Z,14.93
2022-12-14T08:14:53.294Z,13.93
2022-12-14T08:18:59.664Z,14.33
2022-12-14T08:23:02.780Z,12.90
2022-12-14T08:27:05.801Z,13.60
2022-12-14T08:31:10.638Z,13.47
2022-12-14T08:35:15.201Z,14.80
2022-12-14T08:39:18.308Z,12.37
2022-12-14T08:43:25.001Z,13.03
2022-12-14T08:47:28.329Z,16.37
2022-12-14T08:51:32.767Z,13.53
2022-12-14T08:55:38.972Z,16.03
2022-12-14T09:04:08.201Z,11.87
2022-12-14T09:08:12.872Z,12.40
2022-12-14T09:12:16.105Z,13.30
2022-12-14T09:16:21.896Z,14.80
2022-12-14T09:20:25.011Z,13.53
2022-12-14T09:24:29.611Z,13.17
2022-12-14T09:28:34.726Z,16.43
2022-12-14T09:32:37.788Z,15.03
2022-12-14T09:36:40.900Z,15.63
2022-12-14T09:40:51.318Z,15.90
2022-12-14T09:45:01.799Z,15.97
2022-12-14T09:49:06.270Z,16.43
2022-12-14T09:53:15.366Z,16.53
2022-12-14T09:57:29.775Z,16.87
2022-12-14T10:02:13.715Z,14.80
2022-12-14T10:06:34.125Z,16.27
2022-12-14T10:10:49.357Z,14.60
2022-12-14T10:15:11.320Z,14.23
2022-12-14T10:19:28.902Z,15.60
2022-12-14T10:23:32.891Z,15.47
2022-12-14T10:28:01.207Z,18.60
2022-12-14T10:32:13.448Z,16.43
2022-12-14T10:36:21.837Z,16.33
2022-12-14T10:40:34.069Z,18.73
2022-12-14T10:44:51.520Z,18.63
2022-12-14T10:49:07.547Z,16.50
2022-12-14T10:53:17.478Z,18.03
2022-12-14T10:57:21.853Z,16.27
2022-12-14T11:01:25.252Z,18.00
2022-12-14T11:05:37.623Z,15.63
2022-12-14T11:09:41.454Z,15.23
2022-12-14T11:13:52.879Z,17.87
2022-12-14T11:18:02.977Z,17.43
2022-12-14T11:22:20.295Z,16.80
2022-12-14T11:26:29.879Z,16.53
2022-12-14T11:30:33.250Z,16.20
2022-12-14T11:34:39.389Z,15.40
2022-12-14T11:38:43.832Z,17.80
2022-12-14T11:42:50.562Z,19.30
2022-12-14T11:46:56.461Z,16.90
2022-12-14T11:51:11.273Z,16.57
2022-12-14T11:55:24.710Z,17.63
2022-12-14T11:59:38.070Z,18.03
2022-12-14T12:03:47.114Z,18.30
2022-12-14T12:07:55.437Z,17.97
2022-12-14T12:12:00.127Z,15.43
2022-12-14T12:16:07.288Z,16.03
2022-12-14T12:20:23.718Z,15.67
2022-12-14T12:24:32.420Z,20.20
2022-12-14T12:28:44.821Z,19.63
2022-12-14T12:32:53.639Z,16.03
2022-12-14T12:37:25.249Z,15.80
2022-12-14T12:41:30.695Z,19.23
2022-12-14T12:45:39.232Z,17.27
2022-12-14T12:49:42.291Z,20.07
2022-12-14T12:53:49.022Z,17.53
2022-12-14T12:57:54.867Z,19.73
2022-12-14T13:02:04.485Z,28.27
2022-12-14T13:06:16.718Z,19.37
2022-12-14T13:10:24.033Z,16.67
2022-12-14T13:14:33.059Z,18.00
2022-12-14T13:19:08.860Z,18.70
2022-12-14T13:23:44.346Z,17.07
2022-12-14T13:27:51.212Z,16.60
2022-12-14T13:32:03.642Z,18.83
2022-12-14T13:36:35.257Z,19.27
2022-12-14T13:41:02.703Z,14.70
2022-12-14T13:45:16.234Z,15.10
2022-12-14T13:49:23.046Z,16.67
2022-12-14T13:53:30.542Z,16.97
2022-12-14T13:57:33.656Z,18.07
2022-12-14T14:02:05.129Z,17.13
2022-12-14T14:06:10.604Z,16.13
2022-12-14T14:10:32.195Z,18.30
2022-12-14T14:14:48.838Z,17.57
2022-12-14T14:18:58.503Z,17.60
2022-12-14T14:23:29.475Z,19.60
2022-12-14T14:27:38.802Z,18.93
2022-12-14T14:31:48.300Z,16.63
2022-12-14T14:35:51.585Z,18.70
2022-12-14T14:40:18.704Z,16.70
2022-12-14T14:44:38.958Z,19.93
2022-12-14T14:48:44.971Z,18.20
2022-12-14T14:53:13.999Z,21.53
2022-12-14T14:57:35.154Z,17.83
2022-12-14T15:01:45.623Z,17.27
2022-12-14T15:05:49.768Z,17.73
2022-12-14T15:10:00.845Z,16.53
2022-12-14T15:14:08.155Z,18.07
2022-12-14T15:18:22.890Z,19.70
2022-12-14T15:22:28.613Z,19.43
2022-12-14T15:26:35.398Z,17.70
2022-12-14T15:30:39.835Z,17.90
2022-12-14T15:34:53.356Z,18.23
2022-12-14T15:38:58.702Z,20.70
2022-12-14T15:43:03.778Z,17.60
2022-12-14T15:47:07.922Z,16.13
2022-12-14T15:51:17.939Z,21.10
2022-12-14T15:55:30.804Z,19.03
2022-12-14T15:59:36.982Z,18.87
2022-12-14T16:03:43.832Z,17.93
2022-12-14T16:07:52.391Z,19.10
2022-12-14T16:11:57.984Z,18.67
2022-12-14T16:16:08.017Z,16.40
2022-12-14T16:20:19.949Z,17.40
2022-12-14T16:24:26.650Z,18.10
2022-12-14T16:28:32.676Z,19.27
2022-12-14T16:32:36.094Z,20.40
2022-12-14T16:36:39.185Z,20.17
2022-12-14T16:40:53.026Z,17.60
2022-12-14T16:44:56.248Z,18.57
2022-12-14T16:49:20.802Z,17.67
2022-12-14T16:53:26.157Z,19.07
2022-12-14T16:57:30.878Z,18.57
2022-12-14T17:01:42.626Z,18.90
2022-12-14T17:05:54.019Z,21.83
2022-12-14T17:09:57.405Z,20.93
2022-12-14T17:14:01.928Z,21.43
2022-12-14T17:18:08.062Z,18.10
2022-12-14T17:22:17.506Z,19.20
2022-12-14T17:26:23.403Z,20.70
2022-12-14T17:30:28.784Z,17.47
2022-12-14T17:34:32.038Z,22.90
2022-12-14T17:38:35.314Z,22.27
2022-12-14T17:42:40.811Z,19.67
2022-12-14T17:46:48.696Z,19.90
2022-12-14T17:50:52.264Z,19.27
2022-12-14T17:54:55.454Z,20.00
2022-12-14T17:58:58.498Z,23.10
2022-12-14T18:03:03.955Z,23.07
2022-12-14T18:07:07.479Z,22.20
2022-12-14T18:11:14.658Z,20.10
2022-12-14T18:15:20.724Z,24.30
2022-12-14T18:19:25.373Z,20.60
2022-12-14T18:23:29.849Z,21.67
2022-12-14T18:27:33.393Z,20.67
2022-12-14T18:31:38.944Z,24.10
2022-12-14T18:35:44.318Z,23.57
2022-12-14T18:39:49.369Z,23.90
2022-12-14T18:43:54.287Z,27.00
2022-12-14T18:47:57.584Z,23.73
2022-12-14T18:52:02.014Z,23.03
2022-12-14T18:56:09.292Z,25.13
2022-12-14T19:00:15.051Z,26.03
2022-12-14T19:04:18.189Z,24.97
2022-12-14T19:08:22.592Z,24.40
2022-12-14T19:12:25.920Z,27.07
2022-12-14T19:16:29.295Z,31.47
2022-12-14T19:20:32.484Z,26.47
2022-12-14T19:24:37.462Z,28.70
2022-12-14T19:28:40.522Z,27.40
2022-12-14T19:32:44.209Z,26.33
2022-12-14T19:36:50.588Z,29.83
2022-12-14T19:41:03.344Z,30.93
2022-12-14T19:45:08.204Z,32.03
2022-12-14T19:49:14.764Z,31.13
2022-12-14T19:53:23.251Z,32.93
2022-12-14T19:57:29.062Z,31.57
2022-12-14T20:01:38.812Z,33.03
2022-12-14T20:05:51.334Z,31.07
2022-12-14T20:09:54.588Z,33.90
2022-12-14T20:14:03.290Z,34.27
2022-12-14T20:18:07.467Z,32.33
2022-12-14T20:22:10.803Z,34.63
2022-12-14T20:26:17.661Z,36.83
2022-12-14T20:30:22.137Z,34.63
2022-12-14T20:34:25.407Z,32.10
2022-12-14T20:38:29.487Z,33.10
2022-12-14T20:42:32.605Z,36.30
2022-12-14T20:46:39.411Z,34.00
2022-12-14T20:50:44.278Z,35.57
2022-12-14T20:54:54.074Z,35.57
2022-12-14T20:58:57.282Z,35.73
2022-12-14T21:03:01.921Z,33.73
2022-12-14T21:07:05.145Z,32.17
2022-12-14T21:11:22.209Z,35.30
2022-12-14T21:15:25.516Z,33.57
2022-12-14T21:19:30.071Z,34.47
2022-12-14T21:23:33.388Z,32.07
2022-12-14T21:27:39.005Z,34.17
2022-12-14T21:31:44.348Z,32.63
2022-12-14T21:35:48.804Z,30.70
2022-12-14T21:39:55.006Z,36.07
2022-12-14T21:44:00.499Z,34.13
2022-12-14T21:48:03.790Z,33.63
2022-12-14T21:52:08.268Z,33.70
2022-12-14T21:56:34.097Z,34.57
2022-12-14T22:00:39.158Z,36.57
2022-12-14T22:04:46.747Z,37.97
2022-12-14T22:08:51.414Z,35.87
2022-12-14T22:12:54.523Z,32.87
2022-12-14T22:16:57.615Z,33.87
2022-12-14T22:21:04.378Z,37.30
2022-12-14T22:25:09.620Z,34.07
2022-12-14T22:29:12.857Z,38.33
2022-12-14T22:33:16.059Z,41.27
2022-12-14T22:37:19.055Z,37.90
2022-12-14T22:41:23.581Z,34.17
2022-12-14T22:45:27.915Z,35.90
2022-12-14T22:49:30.926Z,35.00
2022-12-14T22:53:34.728Z,37.10
2022-12-14T22:57:41.740Z,32.67
2022-12-14T23:01:50.086Z,33.03
2022-12-14T23:06:00.354Z,28.90
2022-12-14T23:10:23.163Z,32.47
2022-12-14T23:14:44.993Z,31.43
2022-12-14T23:19:05.261Z,29.23
2022-12-14T23:23:26.977Z,32.20
2022-12-14T23:27:47.741Z,39.17
2022-12-14T23:32:09.756Z,38.37
2022-12-14T23:36:30.355Z,27.97
2022-12-14T23:40:50.579Z,34.30
2022-12-14T23:45:10.932Z,33.10
2022-12-14T23:49:33.146Z,33.30
2022-12-14T23:53:53.552Z,33.60
2022-12-14T23:58:15.849Z,31.33
